sensor_id;sensor_type;location;lat;lon;timestamp;pressure;altitude;pressure_sealevel;temperature;humidity
39487;BME280;25173;50.430;18.926;2023-02-15T00:02:55;99911.19;;;8.83;56.30
39487;BME280;25173;50.430;18.926;2023-02-15T00:05:57;99917.69;;;8.82;56.30
39487;BME280;25173;50.430;18.926;2023-02-15T00:08:58;99902.66;;;8.80;56.17
39487;BME280;25173;50.430;18.926;2023-02-15T00:11:58;99906.66;;;8.77;56.16
39487;BME280;25173;50.430;18.926;2023-02-15T00:14:59;99909.00;;;8.67;56.26
39487;BME280;25173;50.430;18.926;2023-02-15T00:18:00;99909.63;;;8.69;56.44
39487;BME280;25173;50.430;18.926;2023-02-15T00:21:06;99904.03;;;8.64;56.58
39487;BME280;25173;50.430;18.926;2023-02-15T00:24:09;99902.97;;;8.65;56.71
39487;BME280;25173;50.430;18.926;2023-02-15T00:27:11;99898.13;;;8.67;56.80
39487;BME280;25173;50.430;18.926;2023-02-15T00:30:13;99894.63;;;8.67;56.89
39487;BME280;25173;50.430;18.926;2023-02-15T00:33:14;99889.78;;;8.69;56.82
39487;BME280;25173;50.430;18.926;2023-02-15T00:36:15;99879.56;;;8.64;56.81
39487;BME280;25173;50.430;18.926;2023-02-15T00:39:16;99873.31;;;8.64;56.86
39487;BME280;25173;50.430;18.926;2023-02-15T00:42:18;99876.41;;;8.67;57.02
39487;BME280;25173;50.430;18.926;2023-02-15T00:45:19;99871.53;;;8.76;56.83
39487;BME280;25173;50.430;18.926;2023-02-15T00:48:21;99867.34;;;8.80;56.67
39487;BME280;25173;50.430;18.926;2023-02-15T00:51:23;99863.97;;;8.84;56.65
39487;BME280;25173;50.430;18.926;2023-02-15T00:54:23;99867.66;;;8.90;56.67
39487;BME280;25173;50.430;18.926;2023-02-15T00:57:24;99869.34;;;8.91;56.39
39487;BME280;25173;50.430;18.926;2023-02-15T01:00:25;99859.56;;;8.83;56.52
39487;BME280;25173;50.430;18.926;2023-02-15T01:03:26;99851.88;;;8.80;56.69
39487;BME280;25173;50.430;18.926;2023-02-15T01:06:27;99858.97;;;8.81;56.73
39487;BME280;25173;50.430;18.926;2023-02-15T01:09:27;99853.94;;;8.85;56.81
39487;BME280;25173;50.430;18.926;2023-02-15T01:12:30;99859.50;;;8.90;56.77
39487;BME280;25173;50.430;18.926;2023-02-15T01:15:34;99863.84;;;8.98;56.63
39487;BME280;25173;50.430;18.926;2023-02-15T01:18:35;99860.53;;;8.95;56.56
39487;BME280;25173;50.430;18.926;2023-02-15T01:21:36;99854.28;;;8.95;56.38
39487;BME280;25173;50.430;18.926;2023-02-15T01:24:37;99841.72;;;8.94;56.33
39487;BME280;25173;50.430;18.926;2023-02-15T01:27:38;99846.75;;;8.90;56.12
39487;BME280;25173;50.430;18.926;2023-02-15T01:30:40;99839.66;;;8.89;56.18
39487;BME280;25173;50.430;18.926;2023-02-15T01:33:41;99840.69;;;8.95;56.16
39487;BME280;25173;50.430;18.926;2023-02-15T01:36:43;99837.28;;;9.00;56.11
39487;BME280;25173;50.430;18.926;2023-02-15T01:39:44;99842.09;;;8.98;56.00
39487;BME280;25173;50.430;18.926;2023-02-15T01:42:45;99823.81;;;8.86;56.09
39487;BME280;25173;50.430;18.926;2023-02-15T01:45:48;99812.94;;;8.86;56.11
39487;BME280;25173;50.430;18.926;2023-02-15T01:48:54;99810.38;;;8.91;56.21
39487;BME280;25173;50.430;18.926;2023-02-15T01:51:55;99806.63;;;8.92;56.03
39487;BME280;25173;50.430;18.926;2023-02-15T01:54:59;99804.13;;;8.91;55.96
39487;BME280;25173;50.430;18.926;2023-02-15T01:58:00;99803.47;;;8.95;56.01
39487;BME280;25173;50.430;18.926;2023-02-15T02:01:01;99801.34;;;8.98;56.03
39487;BME280;25173;50.430;18.926;2023-02-15T02:07:06;99787.13;;;8.77;55.99
39487;BME280;25173;50.430;18.926;2023-02-15T02:10:09;99789.69;;;8.72;56.13
39487;BME280;25173;50.430;18.926;2023-02-15T02:13:11;99793.44;;;8.71;56.16
39487;BME280;25173;50.430;18.926;2023-02-15T02:30:23;99766.06;;;8.48;56.45
39487;BME280;25173;50.430;18.926;2023-02-15T02:33:42;99767.50;;;8.50;56.65
39487;BME280;25173;50.430;18.926;2023-02-15T02:50:05;99748.28;;;8.52;56.82
39487;BME280;25173;50.430;18.926;2023-02-15T02:53:06;99738.00;;;8.54;57.03
39487;BME280;25173;50.430;18.926;2023-02-15T02:56:37;99744.66;;;8.58;56.72
39487;BME280;25173;50.430;18.926;2023-02-15T02:59:45;99744.28;;;8.54;56.74
39487;BME280;25173;50.430;18.926;2023-02-15T03:02:50;99741.00;;;8.46;56.84
39487;BME280;25173;50.430;18.926;2023-02-15T03:05:59;99741.69;;;8.41;56.96
39487;BME280;25173;50.430;18.926;2023-02-15T03:09:14;99738.13;;;8.41;57.13
39487;BME280;25173;50.430;18.926;2023-02-15T03:12:24;99742.50;;;8.42;57.07
39487;BME280;25173;50.430;18.926;2023-02-15T03:15:32;99731.03;;;8.40;57.17
39487;BME280;25173;50.430;18.926;2023-02-15T03:22:07;99733.47;;;8.16;57.14
39487;BME280;25173;50.430;18.926;2023-02-15T03:25:23;99730.91;;;7.97;57.46
39487;BME280;25173;50.430;18.926;2023-02-15T03:28:33;99738.28;;;7.83;57.75
39487;BME280;25173;50.430;18.926;2023-02-15T03:31:39;99735.16;;;7.79;58.15
39487;BME280;25173;50.430;18.926;2023-02-15T03:34:43;99729.94;;;7.85;58.13
39487;BME280;25173;50.430;18.926;2023-02-15T03:37:49;99745.56;;;7.89;58.06
39487;BME280;25173;50.430;18.926;2023-02-15T03:40:53;99744.47;;;7.97;58.08
39487;BME280;25173;50.430;18.926;2023-02-15T03:44:18;99742.13;;;8.07;58.07
39487;BME280;25173;50.430;18.926;2023-02-15T03:47:26;99747.50;;;8.13;58.11
39487;BME280;25173;50.430;18.926;2023-02-15T03:50:31;99744.13;;;8.18;57.94
39487;BME280;25173;50.430;18.926;2023-02-15T03:53:52;99755.97;;;8.24;57.81
39487;BME280;25173;50.430;18.926;2023-02-15T03:56:54;99758.63;;;8.30;57.81
39487;BME280;25173;50.430;18.926;2023-02-15T04:00:19;99749.41;;;8.38;57.76
39487;BME280;25173;50.430;18.926;2023-02-15T04:06:54;99749.16;;;8.46;57.65
39487;BME280;25173;50.430;18.926;2023-02-15T04:09:55;99747.66;;;8.50;57.56
39487;BME280;25173;50.430;18.926;2023-02-15T04:13:14;99757.03;;;8.54;57.50
39487;BME280;25173;50.430;18.926;2023-02-15T04:16:15;99751.00;;;8.52;57.47
39487;BME280;25173;50.430;18.926;2023-02-15T04:19:16;99747.25;;;8.46;57.31
39487;BME280;25173;50.430;18.926;2023-02-15T04:22:35;99744.13;;;8.18;57.38
39487;BME280;25173;50.430;18.926;2023-02-15T04:25:55;99744.69;;;7.95;57.78
39487;BME280;25173;50.430;18.926;2023-02-15T04:28:56;99749.47;;;7.93;58.16
39487;BME280;25173;50.430;18.926;2023-02-15T04:31:59;99753.28;;;7.92;58.24
39487;BME280;25173;50.430;18.926;2023-02-15T04:35:00;99743.47;;;7.91;58.02
39487;BME280;25173;50.430;18.926;2023-02-15T04:38:01;99748.16;;;7.77;58.12
39487;BME280;25173;50.430;18.926;2023-02-15T04:41:02;99753.38;;;7.72;58.30
39487;BME280;25173;50.430;18.926;2023-02-15T04:44:03;99758.41;;;7.69;58.36
39487;BME280;25173;50.430;18.926;2023-02-15T04:47:04;99753.59;;;7.64;58.52
39487;BME280;25173;50.430;18.926;2023-02-15T04:50:05;99759.50;;;7.55;58.60
39487;BME280;25173;50.430;18.926;2023-02-15T04:53:06;99765.81;;;7.42;58.85
39487;BME280;25173;50.430;18.926;2023-02-15T04:56:07;99756.63;;;7.43;59.06
39487;BME280;25173;50.430;18.926;2023-02-15T04:59:11;99754.72;;;7.50;59.14
39487;BME280;25173;50.430;18.926;2023-02-15T05:02:12;99748.88;;;7.53;59.12
39487;BME280;25173;50.430;18.926;2023-02-15T05:05:13;99755.31;;;7.59;58.91
39487;BME280;25173;50.430;18.926;2023-02-15T05:08:15;99751.72;;;7.65;58.89
39487;BME280;25173;50.430;18.926;2023-02-15T05:11:16;99749.81;;;7.72;58.97
39487;BME280;25173;50.430;18.926;2023-02-15T05:14:17;99745.19;;;7.79;58.83
39487;BME280;25173;50.430;18.926;2023-02-15T05:17:21;99751.06;;;7.76;58.63
39487;BME280;25173;50.430;18.926;2023-02-15T05:20:32;99745.47;;;7.64;58.77
39487;BME280;25173;50.430;18.926;2023-02-15T05:23:33;99751.16;;;7.56;59.06
39487;BME280;25173;50.430;18.926;2023-02-15T05:26:34;99745.97;;;7.55;59.15
39487;BME280;25173;50.430;18.926;2023-02-15T05:29:53;99749.47;;;7.62;59.24
39487;BME280;25173;50.430;18.926;2023-02-15T05:32:54;99743.56;;;7.71;59.08
39487;BME280;25173;50.430;18.926;2023-02-15T05:35:55;99741.63;;;7.78;58.93
39487;BME280;25173;50.430;18.926;2023-02-15T05:38:55;99746.03;;;7.79;58.98
39487;BME280;25173;50.430;18.926;2023-02-15T05:42:00;99738.50;;;7.82;58.81
39487;BME280;25173;50.430;18.926;2023-02-15T05:45:01;99734.34;;;7.79;58.99
39487;BME280;25173;50.430;18.926;2023-02-15T05:48:02;99736.84;;;7.80;59.01
39487;BME280;25173;50.430;18.926;2023-02-15T05:51:11;99730.78;;;7.85;59.06
39487;BME280;25173;50.430;18.926;2023-02-15T05:54:16;99734.72;;;7.89;58.99
39487;BME280;25173;50.430;18.926;2023-02-15T05:57:17;99739.31;;;7.89;59.04
39487;BME280;25173;50.430;18.926;2023-02-15T06:00:18;99731.81;;;7.84;59.07
39487;BME280;25173;50.430;18.926;2023-02-15T06:03:19;99735.78;;;7.82;59.24
39487;BME280;25173;50.430;18.926;2023-02-15T06:06:19;99732.88;;;7.83;59.02
39487;BME280;25173;50.430;18.926;2023-02-15T06:09:20;99743.50;;;7.85;59.08
39487;BME280;25173;50.430;18.926;2023-02-15T06:12:21;99737.84;;;7.86;59.09
39487;BME280;25173;50.430;18.926;2023-02-15T06:15:21;99734.50;;;7.91;59.07
39487;BME280;25173;50.430;18.926;2023-02-15T06:18:22;99752.59;;;7.97;58.95
39487;BME280;25173;50.430;18.926;2023-02-15T06:21:23;99748.41;;;8.01;59.28
39487;BME280;25173;50.430;18.926;2023-02-15T06:24:23;99747.75;;;8.05;58.89
39487;BME280;25173;50.430;18.926;2023-02-15T06:27:24;99753.34;;;8.10;58.91
39487;BME280;25173;50.430;18.926;2023-02-15T06:30:24;99751.47;;;8.11;59.05
39487;BME280;25173;50.430;18.926;2023-02-15T06:33:25;99754.59;;;8.14;58.81
39487;BME280;25173;50.430;18.926;2023-02-15T06:36:25;99760.03;;;8.14;58.72
39487;BME280;25173;50.430;18.926;2023-02-15T06:39:26;99761.22;;;8.18;58.76
39487;BME280;25173;50.430;18.926;2023-02-15T06:42:27;99754.13;;;8.17;58.54
39487;BME280;25173;50.430;18.926;2023-02-15T06:45:28;99763.72;;;8.20;58.67
39487;BME280;25173;50.430;18.926;2023-02-15T06:48:28;99763.28;;;8.23;58.65
39487;BME280;25173;50.430;18.926;2023-02-15T06:51:29;99760.97;;;8.27;58.60
39487;BME280;25173;50.430;18.926;2023-02-15T06:54:29;99766.16;;;8.35;58.58
39487;BME280;25173;50.430;18.926;2023-02-15T06:57:30;99751.53;;;8.36;58.52
39487;BME280;25173;50.430;18.926;2023-02-15T07:00:32;99753.63;;;8.34;58.49
39487;BME280;25173;50.430;18.926;2023-02-15T07:03:33;99755.59;;;8.20;58.32
39487;BME280;25173;50.430;18.926;2023-02-15T07:06:34;99749.00;;;8.03;58.43
39487;BME280;25173;50.430;18.926;2023-02-15T07:09:35;99744.69;;;7.95;58.90
39487;BME280;25173;50.430;18.926;2023-02-15T07:12:36;99748.44;;;7.94;58.84
39487;BME280;25173;50.430;18.926;2023-02-15T07:15:43;99742.00;;;7.89;59.02
39487;BME280;25173;50.430;18.926;2023-02-15T07:18:45;99741.81;;;7.90;59.08
39487;BME280;25173;50.430;18.926;2023-02-15T07:21:45;99741.38;;;7.87;59.18
39487;BME280;25173;50.430;18.926;2023-02-15T07:24:46;99744.72;;;7.89;59.28
39487;BME280;25173;50.430;18.926;2023-02-15T07:27:48;99743.84;;;7.95;59.22
39487;BME280;25173;50.430;18.926;2023-02-15T07:30:48;99730.50;;;7.93;59.23
39487;BME280;25173;50.430;18.926;2023-02-15T07:33:49;99727.16;;;7.98;59.27
39487;BME280;25173;50.430;18.926;2023-02-15T07:36:52;99732.16;;;7.94;59.12
39487;BME280;25173;50.430;18.926;2023-02-15T07:39:54;99720.53;;;7.87;59.50
39487;BME280;25173;50.430;18.926;2023-02-15T07:42:57;99722.97;;;7.95;59.43
39487;BME280;25173;50.430;18.926;2023-02-15T07:46:07;99724.22;;;7.99;59.23
39487;BME280;25173;50.430;18.926;2023-02-15T07:49:08;99721.56;;;7.93;59.34
39487;BME280;25173;50.430;18.926;2023-02-15T07:52:08;99714.69;;;7.90;59.50
39487;BME280;25173;50.430;18.926;2023-02-15T07:55:09;99717.59;;;7.89;59.68
39487;BME280;25173;50.430;18.926;2023-02-15T07:58:12;99710.97;;;7.85;59.61
39487;BME280;25173;50.430;18.926;2023-02-15T08:01:14;99712.38;;;7.87;59.89
39487;BME280;25173;50.430;18.926;2023-02-15T08:04:15;99701.28;;;7.95;59.81
39487;BME280;25173;50.430;18.926;2023-02-15T08:07:16;99704.78;;;8.02;59.83
39487;BME280;25173;50.430;18.926;2023-02-15T08:10:17;99702.84;;;8.09;59.67
39487;BME280;25173;50.430;18.926;2023-02-15T08:13:37;99701.44;;;8.00;59.37
39487;BME280;25173;50.430;18.926;2023-02-15T08:16:54;99707.56;;;7.89;59.91
39487;BME280;25173;50.430;18.926;2023-02-15T08:19:56;99712.16;;;7.89;60.19
39487;BME280;25173;50.430;18.926;2023-02-15T08:22:56;99711.50;;;7.93;60.13
39487;BME280;25173;50.430;18.926;2023-02-15T08:25:59;99711.44;;;8.06;60.04
39487;BME280;25173;50.430;18.926;2023-02-15T08:29:01;99708.63;;;8.19;59.85
39487;BME280;25173;50.430;18.926;2023-02-15T08:32:05;99711.47;;;8.31;59.66
39487;BME280;25173;50.430;18.926;2023-02-15T08:35:06;99711.66;;;8.36;59.73
39487;BME280;25173;50.430;18.926;2023-02-15T08:38:06;99710.09;;;8.47;59.52
39487;BME280;25173;50.430;18.926;2023-02-15T08:41:16;99708.13;;;8.54;59.25
39487;BME280;25173;50.430;18.926;2023-02-15T08:44:19;99702.13;;;8.52;59.29
39487;BME280;25173;50.430;18.926;2023-02-15T08:47:19;99696.06;;;8.50;59.33
39487;BME280;25173;50.430;18.926;2023-02-15T08:50:20;99697.53;;;8.71;59.60
39487;BME280;25173;50.430;18.926;2023-02-15T08:53:21;99698.84;;;8.86;58.94
39487;BME280;25173;50.430;18.926;2023-02-15T08:56:24;99694.16;;;8.93;58.78
39487;BME280;25173;50.430;18.926;2023-02-15T08:59:26;99684.13;;;8.94;58.51
39487;BME280;25173;50.430;18.926;2023-02-15T09:02:27;99685.72;;;9.02;58.72
39487;BME280;25173;50.430;18.926;2023-02-15T09:05:27;99677.41;;;9.15;58.69
39487;BME280;25173;50.430;18.926;2023-02-15T09:08:28;99671.66;;;9.23;58.53
39487;BME280;25173;50.430;18.926;2023-02-15T09:11:32;99673.53;;;9.22;58.28
39487;BME280;25173;50.430;18.926;2023-02-15T09:14:33;99678.53;;;9.25;58.56
39487;BME280;25173;50.430;18.926;2023-02-15T09:17:34;99670.66;;;9.35;58.43
39487;BME280;25173;50.430;18.926;2023-02-15T09:20:35;99666.34;;;9.46;58.30
39487;BME280;25173;50.430;18.926;2023-02-15T09:23:36;99659.53;;;9.55;58.27
39487;BME280;25173;50.430;18.926;2023-02-15T09:26:39;99658.28;;;9.69;58.33
39487;BME280;25173;50.430;18.926;2023-02-15T09:29:43;99656.63;;;9.80;57.64
39487;BME280;25173;50.430;18.926;2023-02-15T09:32:43;99656.19;;;9.83;57.80
39487;BME280;25173;50.430;18.926;2023-02-15T09:35:46;99650.34;;;9.80;57.53
39487;BME280;25173;50.430;18.926;2023-02-15T09:38:50;99651.19;;;9.80;57.75
39487;BME280;25173;50.430;18.926;2023-02-15T09:51:42;99645.97;;;9.79;58.15
39487;BME280;25173;50.430;18.926;2023-02-15T09:54:57;99631.47;;;9.85;57.98
39487;BME280;25173;50.430;18.926;2023-02-15T10:01:14;99626.41;;;10.00;57.90
39487;BME280;25173;50.430;18.926;2023-02-15T10:14:05;99623.06;;;9.98;57.42
39487;BME280;25173;50.430;18.926;2023-02-15T10:23:55;99605.00;;;10.15;57.39
39487;BME280;25173;50.430;18.926;2023-02-15T10:26:50;99602.66;;;10.19;57.58
39487;BME280;25173;50.430;18.926;2023-02-15T10:33:01;99594.00;;;10.33;56.91
39487;BME280;25173;50.430;18.926;2023-02-15T10:36:15;99602.66;;;10.42;57.45
39487;BME280;25173;50.430;18.926;2023-02-15T10:45:54;99593.97;;;10.68;56.70
39487;BME280;25173;50.430;18.926;2023-02-15T10:52:37;99574.97;;;10.85;56.85
39487;BME280;25173;50.430;18.926;2023-02-15T10:55:55;99570.31;;;10.97;56.61
39487;BME280;25173;50.430;18.926;2023-02-15T10:59:15;99572.47;;;10.95;56.35
39487;BME280;25173;50.430;18.926;2023-02-15T11:08:34;99554.22;;;11.24;55.83
39487;BME280;25173;50.430;18.926;2023-02-15T11:11:36;99550.28;;;11.32;55.14
39487;BME280;25173;50.430;18.926;2023-02-15T11:14:49;99545.50;;;11.39;55.38
39487;BME280;25173;50.430;18.926;2023-02-15T11:17:56;99544.56;;;11.50;55.56
39487;BME280;25173;50.430;18.926;2023-02-15T11:21:02;99542.94;;;11.65;55.13
39487;BME280;25173;50.430;18.926;2023-02-15T11:24:14;99544.53;;;11.78;54.91
39487;BME280;25173;50.430;18.926;2023-02-15T11:27:21;99538.25;;;11.94;55.17
39487;BME280;25173;50.430;18.926;2023-02-15T11:30:24;99530.31;;;12.10;54.53
39487;BME280;25173;50.430;18.926;2023-02-15T11:33:34;99535.56;;;12.33;54.15
39487;BME280;25173;50.430;18.926;2023-02-15T11:36:40;99535.34;;;12.56;54.17
39487;BME280;25173;50.430;18.926;2023-02-15T11:39:41;99525.28;;;12.83;54.16
39487;BME280;25173;50.430;18.926;2023-02-15T11:42:43;99525.88;;;13.12;53.70
39487;BME280;25173;50.430;18.926;2023-02-15T11:45:45;99520.09;;;13.31;52.91
39487;BME280;25173;50.430;18.926;2023-02-15T11:48:47;99516.72;;;13.50;52.60
39487;BME280;25173;50.430;18.926;2023-02-15T11:51:48;99511.94;;;13.68;52.38
39487;BME280;25173;50.430;18.926;2023-02-15T11:54:51;99504.94;;;13.82;51.83
39487;BME280;25173;50.430;18.926;2023-02-15T11:58:40;99497.34;;;13.94;50.24
39487;BME280;25173;50.430;18.926;2023-02-15T12:01:44;99498.53;;;14.03;50.69
39487;BME280;25173;50.430;18.926;2023-02-15T12:04:55;99505.44;;;14.16;49.69
39487;BME280;25173;50.430;18.926;2023-02-15T12:08:02;99501.44;;;14.33;49.08
39487;BME280;25173;50.430;18.926;2023-02-15T12:11:09;99488.94;;;14.43;49.00
39487;BME280;25173;50.430;18.926;2023-02-15T12:14:13;99490.63;;;14.54;48.78
39487;BME280;25173;50.430;18.926;2023-02-15T12:17:16;99477.47;;;14.61;48.90
39487;BME280;25173;50.430;18.926;2023-02-15T12:23:18;99475.88;;;14.75;48.63
39487;BME280;25173;50.430;18.926;2023-02-15T12:26:24;99468.78;;;14.79;48.09
39487;BME280;25173;50.430;18.926;2023-02-15T12:29:29;99461.13;;;14.86;48.08
39487;BME280;25173;50.430;18.926;2023-02-15T12:32:34;99455.63;;;14.91;47.83
39487;BME280;25173;50.430;18.926;2023-02-15T12:35:35;99459.25;;;15.02;48.08
39487;BME280;25173;50.430;18.926;2023-02-15T12:38:37;99452.13;;;15.16;48.12
39487;BME280;25173;50.430;18.926;2023-02-15T12:41:38;99450.75;;;15.29;47.56
39487;BME280;25173;50.430;18.926;2023-02-15T12:45:01;99443.09;;;15.41;45.88
39487;BME280;25173;50.430;18.926;2023-02-15T12:51:15;99439.00;;;15.53;45.65
39487;BME280;25173;50.430;18.926;2023-02-15T12:54:40;99429.94;;;15.68;44.42
39487;BME280;25173;50.430;18.926;2023-02-15T12:57:41;99435.41;;;15.73;45.30
39487;BME280;25173;50.430;18.926;2023-02-15T13:00:44;99429.91;;;15.83;44.56
39487;BME280;25173;50.430;18.926;2023-02-15T13:03:55;99426.31;;;15.98;44.32
39487;BME280;25173;50.430;18.926;2023-02-15T13:07:01;99424.91;;;16.01;43.88
39487;BME280;25173;50.430;18.926;2023-02-15T13:10:03;99418.03;;;16.03;43.85
39487;BME280;25173;50.430;18.926;2023-02-15T13:13:10;99417.50;;;16.06;43.57
39487;BME280;25173;50.430;18.926;2023-02-15T13:16:13;99411.69;;;16.18;43.04
39487;BME280;25173;50.430;18.926;2023-02-15T13:19:26;99408.66;;;16.19;43.11
39487;BME280;25173;50.430;18.926;2023-02-15T13:22:36;99417.41;;;16.31;42.96
39487;BME280;25173;50.430;18.926;2023-02-15T13:25:44;99408.03;;;16.43;43.15
39487;BME280;25173;50.430;18.926;2023-02-15T13:28:54;99404.38;;;16.62;42.71
39487;BME280;25173;50.430;18.926;2023-02-15T13:31:57;99408.41;;;16.80;42.56
39487;BME280;25173;50.430;18.926;2023-02-15T13:35:00;99398.75;;;16.88;41.86
39487;BME280;25173;50.430;18.926;2023-02-15T13:41:34;99397.63;;;16.89;40.01
39487;BME280;25173;50.430;18.926;2023-02-15T13:47:52;99392.63;;;16.96;40.29
39487;BME280;25173;50.430;18.926;2023-02-15T13:51:07;99389.63;;;16.92;40.32
39487;BME280;25173;50.430;18.926;2023-02-15T13:54:33;99381.06;;;16.94;39.29
39487;BME280;25173;50.430;18.926;2023-02-15T14:08:03;99384.81;;;16.69;39.09
39487;BME280;25173;50.430;18.926;2023-02-15T14:21:31;99369.34;;;17.17;40.00
39487;BME280;25173;50.430;18.926;2023-02-15T14:27:44;99369.16;;;17.37;39.21
39487;BME280;25173;50.430;18.926;2023-02-15T14:30:49;99362.00;;;17.36;39.45
39487;BME280;25173;50.430;18.926;2023-02-15T14:33:55;99352.91;;;17.41;39.17
39487;BME280;25173;50.430;18.926;2023-02-15T14:36:57;99369.09;;;17.42;39.24
39487;BME280;25173;50.430;18.926;2023-02-15T14:40:30;99361.94;;;17.46;38.84
39487;BME280;25173;50.430;18.926;2023-02-15T14:44:08;99362.00;;;17.36;36.70
39487;BME280;25173;50.430;18.926;2023-02-15T14:47:16;99369.28;;;17.22;39.19
39487;BME280;25173;50.430;18.926;2023-02-15T14:50:37;99369.06;;;17.19;38.50
39487;BME280;25173;50.430;18.926;2023-02-15T14:53:38;99360.53;;;17.15;39.90
39487;BME280;25173;50.430;18.926;2023-02-15T14:56:39;99360.53;;;17.15;39.75
39487;BME280;25173;50.430;18.926;2023-02-15T14:59:49;99352.84;;;17.12;39.55
39487;BME280;25173;50.430;18.926;2023-02-15T15:02:53;99354.06;;;17.01;40.09
39487;BME280;25173;50.430;18.926;2023-02-15T15:05:56;99358.50;;;16.92;40.37
39487;BME280;25173;50.430;18.926;2023-02-15T15:09:22;99358.28;;;16.83;39.21
39487;BME280;25173;50.430;18.926;2023-02-15T15:18:44;99351.59;;;16.50;39.73
39487;BME280;25173;50.430;18.926;2023-02-15T15:24:52;99348.97;;;16.30;40.55
39487;BME280;25173;50.430;18.926;2023-02-15T15:27:54;99350.69;;;16.11;40.71
39487;BME280;25173;50.430;18.926;2023-02-15T15:30:55;99344.75;;;15.83;41.15
39487;BME280;25173;50.430;18.926;2023-02-15T15:47:53;99341.84;;;14.06;42.60
39487;BME280;25173;50.430;18.926;2023-02-15T15:51:05;99341.13;;;13.69;43.12
39487;BME280;25173;50.430;18.926;2023-02-15T15:54:15;99337.34;;;13.33;43.53
39487;BME280;25173;50.430;18.926;2023-02-15T16:01:02;99329.47;;;12.77;44.04
39487;BME280;25173;50.430;18.926;2023-02-15T16:04:04;99331.03;;;12.41;44.32
39487;BME280;25173;50.430;18.926;2023-02-15T16:10:24;99333.25;;;11.74;45.45
39487;BME280;25173;50.430;18.926;2023-02-15T16:13:26;99329.69;;;11.57;45.79
39487;BME280;25173;50.430;18.926;2023-02-15T16:16:28;99337.50;;;11.48;45.96
39487;BME280;25173;50.430;18.926;2023-02-15T16:20:00;99337.34;;;11.38;46.29
39487;BME280;25173;50.430;18.926;2023-02-15T16:29:38;99340.09;;;10.88;46.91
39487;BME280;25173;50.430;18.926;2023-02-15T16:32:39;99339.34;;;10.76;47.26
39487;BME280;25173;50.430;18.926;2023-02-15T16:36:03;99322.81;;;10.66;47.44
39487;BME280;25173;50.430;18.926;2023-02-15T16:39:12;99335.25;;;10.45;47.63
39487;BME280;25173;50.430;18.926;2023-02-15T16:42:17;99331.31;;;10.24;48.05
39487;BME280;25173;50.430;18.926;2023-02-15T16:45:20;99334.88;;;10.13;48.35
39487;BME280;25173;50.430;18.926;2023-02-15T16:48:25;99330.22;;;9.97;48.70
39487;BME280;25173;50.430;18.926;2023-02-15T16:51:32;99326.69;;;9.85;48.92
39487;BME280;25173;50.430;18.926;2023-02-15T16:54:34;99333.22;;;9.72;49.01
39487;BME280;25173;50.430;18.926;2023-02-15T16:57:37;99335.75;;;9.62;49.37
39487;BME280;25173;50.430;18.926;2023-02-15T17:00:38;99335.28;;;9.53;49.54
39487;BME280;25173;50.430;18.926;2023-02-15T17:03:41;99327.47;;;9.45;49.75
39487;BME280;25173;50.430;18.926;2023-02-15T17:06:57;99325.34;;;9.35;49.89
39487;BME280;25173;50.430;18.926;2023-02-15T17:09:58;99330.09;;;9.17;50.16
39487;BME280;25173;50.430;18.926;2023-02-15T17:13:29;99325.25;;;9.07;51.04
39487;BME280;25173;50.430;18.926;2023-02-15T17:16:31;99323.69;;;9.00;50.53
39487;BME280;25173;50.430;18.926;2023-02-15T17:22:45;99316.13;;;8.90;50.80
39487;BME280;25173;50.430;18.926;2023-02-15T17:25:46;99319.66;;;8.90;50.89
39487;BME280;25173;50.430;18.926;2023-02-15T17:28:55;99320.28;;;8.92;50.99
39487;BME280;25173;50.430;18.926;2023-02-15T17:31:57;99314.72;;;8.87;51.05
39487;BME280;25173;50.430;18.926;2023-02-15T17:35:08;99317.66;;;8.86;51.20
39487;BME280;25173;50.430;18.926;2023-02-15T17:38:19;99318.59;;;8.80;51.13
39487;BME280;25173;50.430;18.926;2023-02-15T17:41:19;99320.94;;;8.76;51.33
39487;BME280;25173;50.430;18.926;2023-02-15T17:44:20;99324.97;;;8.74;51.43
39487;BME280;25173;50.430;18.926;2023-02-15T17:47:23;99325.81;;;8.74;51.60
39487;BME280;25173;50.430;18.926;2023-02-15T17:50:27;99318.56;;;8.68;51.72
39487;BME280;25173;50.430;18.926;2023-02-15T17:53:28;99312.56;;;8.66;51.75
39487;BME280;25173;50.430;18.926;2023-02-15T17:56:28;99310.91;;;8.65;51.78
39487;BME280;25173;50.430;18.926;2023-02-15T17:59:29;99308.41;;;8.64;52.04
39487;BME280;25173;50.430;18.926;2023-02-15T18:02:33;99304.75;;;8.58;52.26
39487;BME280;25173;50.430;18.926;2023-02-15T18:05:53;99307.31;;;8.53;52.25
39487;BME280;25173;50.430;18.926;2023-02-15T18:09:15;99304.50;;;8.48;52.59
39487;BME280;25173;50.430;18.926;2023-02-15T18:12:35;99298.44;;;8.46;52.56
39487;BME280;25173;50.430;18.926;2023-02-15T18:15:37;99297.16;;;8.37;52.55
39487;BME280;25173;50.430;18.926;2023-02-15T18:18:38;99299.72;;;8.32;52.87
39487;BME280;25173;50.430;18.926;2023-02-15T18:21:39;99294.34;;;8.25;53.18
39487;BME280;25173;50.430;18.926;2023-02-15T18:24:39;99304.38;;;8.25;53.20
39487;BME280;25173;50.430;18.926;2023-02-15T18:27:40;99301.91;;;8.23;53.32
39487;BME280;25173;50.430;18.926;2023-02-15T18:30:41;99300.25;;;8.22;53.47
39487;BME280;25173;50.430;18.926;2023-02-15T18:33:53;99304.88;;;8.22;53.86
39487;BME280;25173;50.430;18.926;2023-02-15T18:36:57;99300.25;;;8.22;53.57
39487;BME280;25173;50.430;18.926;2023-02-15T18:40:00;99304.25;;;8.19;53.61
39487;BME280;25173;50.430;18.926;2023-02-15T18:43:03;99312.28;;;8.14;53.65
39487;BME280;25173;50.430;18.926;2023-02-15T18:46:03;99304.44;;;8.06;53.95
39487;BME280;25173;50.430;18.926;2023-02-15T18:49:05;99309.97;;;8.00;54.06
39487;BME280;25173;50.430;18.926;2023-02-15T18:52:18;99312.06;;;7.98;54.27
39487;BME280;25173;50.430;18.926;2023-02-15T18:55:22;99319.38;;;7.97;54.30
39487;BME280;25173;50.430;18.926;2023-02-15T18:58:24;99304.84;;;7.92;54.46
39487;BME280;25173;50.430;18.926;2023-02-15T19:01:26;99302.81;;;7.87;54.53